sensor_id;sensor_type;location;lat;lon;timestamp;P1;durP1;ratioP1;P2;durP2;ratioP2
33786;SDS011;29742;51.540;9.358;2023-08-06T00:02:21;0.77;;;0.20;;
33786;SDS011;29742;51.540;9.358;2023-08-06T00:07:21;0.22;;;0.20;;
33786;SDS011;29742;51.540;9.358;2023-08-06T00:12:22;0.40;;;0.30;;
33786;SDS011;29742;51.540;9.358;2023-08-06T00:17:23;0.20;;;0.20;;
33786;SDS011;29742;51.540;9.358;2023-08-06T00:22:23;0.10;;;0.10;;
33786;SDS011;29742;51.540;9.358;2023-08-06T00:27:23;0.20;;;0.20;;
33786;SDS011;29742;51.540;9.358;2023-08-06T00:32:24;0.17;;;0.10;;
33786;SDS011;29742;51.540;9.358;2023-08-06T00:37:24;0.28;;;0.20;;
33786;SDS011;29742;51.540;9.358;2023-08-06T00:42:24;0.60;;;0.30;;
33786;SDS011;29742;51.540;9.358;2023-08-06T00:47:25;0.20;;;0.20;;
33786;SDS011;29742;51.540;9.358;2023-08-06T00:52:25;0.57;;;0.30;;
33786;SDS011;29742;51.540;9.358;2023-08-06T00:57:26;0.20;;;0.20;;
33786;SDS011;29742;51.540;9.358;2023-08-06T01:02:26;0.20;;;0.20;;
33786;SDS011;29742;51.540;9.358;2023-08-06T01:12:58;0.13;;;0.13;;
33786;SDS011;29742;51.540;9.358;2023-08-06T01:18:02;0.20;;;0.20;;
33786;SDS011;29742;51.540;9.358;2023-08-06T01:23:03;1.00;;;0.30;;
33786;SDS011;29742;51.540;9.358;2023-08-06T01:28:18;0.30;;;0.30;;
33786;SDS011;29742;51.540;9.358;2023-08-06T01:33:27;0.17;;;0.17;;
33786;SDS011;29742;51.540;9.358;2023-08-06T01:38:28;0.28;;;0.20;;
33786;SDS011;29742;51.540;9.358;2023-08-06T01:43:29;0.32;;;0.10;;
33786;SDS011;29742;51.540;9.358;2023-08-06T01:48:29;0.20;;;0.20;;
33786;SDS011;29742;51.540;9.358;2023-08-06T01:53:29;1.15;;;0.52;;
33786;SDS011;29742;51.540;9.358;2023-08-06T01:58:30;0.10;;;0.10;;
33786;SDS011;29742;51.540;9.358;2023-08-06T02:03:30;0.10;;;0.10;;
33786;SDS011;29742;51.540;9.358;2023-08-06T02:08:30;0.30;;;0.22;;
33786;SDS011;29742;51.540;9.358;2023-08-06T02:13:31;1.02;;;0.20;;
33786;SDS011;29742;51.540;9.358;2023-08-06T02:18:31;0.35;;;0.20;;
33786;SDS011;29742;51.540;9.358;2023-08-06T02:23:32;0.28;;;0.28;;
33786;SDS011;29742;51.540;9.358;2023-08-06T02:28:32;0.13;;;0.10;;
33786;SDS011;29742;51.540;9.358;2023-08-06T02:33:32;0.20;;;0.20;;
33786;SDS011;29742;51.540;9.358;2023-08-06T02:38:33;0.20;;;0.20;;
33786;SDS011;29742;51.540;9.358;2023-08-06T02:43:33;0.28;;;0.20;;
33786;SDS011;29742;51.540;9.358;2023-08-06T02:48:34;0.10;;;0.10;;
33786;SDS011;29742;51.540;9.358;2023-08-06T02:53:34;0.40;;;0.30;;
33786;SDS011;29742;51.540;9.358;2023-08-06T02:58:34;0.30;;;0.20;;
33786;SDS011;29742;51.540;9.358;2023-08-06T03:03:35;0.32;;;0.30;;
33786;SDS011;29742;51.540;9.358;2023-08-06T03:08:35;0.20;;;0.20;;
33786;SDS011;29742;51.540;9.358;2023-08-06T03:13:36;0.10;;;0.10;;
33786;SDS011;29742;51.540;9.358;2023-08-06T03:18:36;0.30;;;0.15;;
33786;SDS011;29742;51.540;9.358;2023-08-06T03:23:36;0.30;;;0.30;;
33786;SDS011;29742;51.540;9.358;2023-08-06T03:28:37;0.30;;;0.20;;
33786;SDS011;29742;51.540;9.358;2023-08-06T03:33:37;0.30;;;0.17;;
33786;SDS011;29742;51.540;9.358;2023-08-06T03:38:38;0.20;;;0.20;;
33786;SDS011;29742;51.540;9.358;2023-08-06T03:43:38;0.35;;;0.25;;
33786;SDS011;29742;51.540;9.358;2023-08-06T03:48:39;0.13;;;0.13;;
33786;SDS011;29742;51.540;9.358;2023-08-06T03:53:39;0.22;;;0.22;;
33786;SDS011;29742;51.540;9.358;2023-08-06T03:58:39;0.20;;;0.13;;
33786;SDS011;29742;51.540;9.358;2023-08-06T04:03:40;0.10;;;0.10;;
33786;SDS011;29742;51.540;9.358;2023-08-06T04:08:40;0.20;;;0.15;;
33786;SDS011;29742;51.540;9.358;2023-08-06T04:13:43;0.20;;;0.20;;
33786;SDS011;29742;51.540;9.358;2023-08-06T04:19:04;0.45;;;0.30;;
33786;SDS011;29742;51.540;9.358;2023-08-06T04:24:04;0.30;;;0.20;;
33786;SDS011;29742;51.540;9.358;2023-08-06T04:29:05;0.30;;;0.20;;
33786;SDS011;29742;51.540;9.358;2023-08-06T04:34:05;0.20;;;0.20;;
33786;SDS011;29742;51.540;9.358;2023-08-06T04:39:05;0.55;;;0.20;;
33786;SDS011;29742;51.540;9.358;2023-08-06T04:44:06;0.30;;;0.20;;
33786;SDS011;29742;51.540;9.358;2023-08-06T04:49:06;0.10;;;0.10;;
33786;SDS011;29742;51.540;9.358;2023-08-06T04:54:07;0.10;;;0.10;;
33786;SDS011;29742;51.540;9.358;2023-08-06T04:59:07;0.40;;;0.30;;
33786;SDS011;29742;51.540;9.358;2023-08-06T05:04:08;0.20;;;0.20;;
33786;SDS011;29742;51.540;9.358;2023-08-06T05:09:08;0.25;;;0.20;;
33786;SDS011;29742;51.540;9.358;2023-08-06T05:14:08;0.08;;;0.05;;
33786;SDS011;29742;51.540;9.358;2023-08-06T05:19:09;0.10;;;0.10;;
33786;SDS011;29742;51.540;9.358;2023-08-06T05:24:09;0.20;;;0.20;;
33786;SDS011;29742;51.540;9.358;2023-08-06T05:29:09;0.05;;;0.05;;
33786;SDS011;29742;51.540;9.358;2023-08-06T05:34:10;0.10;;;0.10;;
33786;SDS011;29742;51.540;9.358;2023-08-06T05:39:10;0.20;;;0.20;;
33786;SDS011;29742;51.540;9.358;2023-08-06T05:44:11;0.10;;;0.10;;
33786;SDS011;29742;51.540;9.358;2023-08-06T05:49:12;0.20;;;0.20;;
33786;SDS011;29742;51.540;9.358;2023-08-06T05:54:13;0.20;;;0.20;;
33786;SDS011;29742;51.540;9.358;2023-08-06T05:59:14;0.32;;;0.17;;
33786;SDS011;29742;51.540;9.358;2023-08-06T06:04:14;0.10;;;0.10;;
33786;SDS011;29742;51.540;9.358;2023-08-06T06:09:14;0.15;;;0.15;;
33786;SDS011;29742;51.540;9.358;2023-08-06T06:14:16;0.10;;;0.10;;
33786;SDS011;29742;51.540;9.358;2023-08-06T06:19:17;0.25;;;0.10;;
33786;SDS011;29742;51.540;9.358;2023-08-06T06:24:17;0.15;;;0.15;;
33786;SDS011;29742;51.540;9.358;2023-08-06T06:29:17;0.13;;;0.13;;
33786;SDS011;29742;51.540;9.358;2023-08-06T06:34:18;0.10;;;0.10;;
33786;SDS011;29742;51.540;9.358;2023-08-06T06:39:18;0.05;;;0.05;;
33786;SDS011;29742;51.540;9.358;2023-08-06T06:44:19;0.03;;;0.03;;
33786;SDS011;29742;51.540;9.358;2023-08-06T06:49:20;0.40;;;0.20;;
33786;SDS011;29742;51.540;9.358;2023-08-06T06:54:21;0.10;;;0.08;;
33786;SDS011;29742;51.540;9.358;2023-08-06T06:59:21;0.10;;;0.10;;
33786;SDS011;29742;51.540;9.358;2023-08-06T07:04:21;0.15;;;0.15;;
33786;SDS011;29742;51.540;9.358;2023-08-06T07:09:22;0.52;;;0.30;;
33786;SDS011;29742;51.540;9.358;2023-08-06T07:14:24;0.25;;;0.25;;
33786;SDS011;29742;51.540;9.358;2023-08-06T07:19:25;0.10;;;0.10;;
33786;SDS011;29742;51.540;9.358;2023-08-06T07:24:25;0.10;;;0.10;;
33786;SDS011;29742;51.540;9.358;2023-08-06T07:29:26;1.40;;;0.20;;
33786;SDS011;29742;51.540;9.358;2023-08-06T07:34:26;0.10;;;0.10;;
33786;SDS011;29742;51.540;9.358;2023-08-06T07:39:27;0.10;;;0.10;;
33786;SDS011;29742;51.540;9.358;2023-08-06T07:44:28;0.45;;;0.40;;
33786;SDS011;29742;51.540;9.358;2023-08-06T07:49:29;0.13;;;0.13;;
33786;SDS011;29742;51.540;9.358;2023-08-06T07:54:29;0.20;;;0.20;;
33786;SDS011;29742;51.540;9.358;2023-08-06T07:59:29;0.28;;;0.25;;
33786;SDS011;29742;51.540;9.358;2023-08-06T08:04:30;2.05;;;0.20;;
33786;SDS011;29742;51.540;9.358;2023-08-06T08:09:31;1.65;;;0.40;;
33786;SDS011;29742;51.540;9.358;2023-08-06T08:14:31;0.88;;;0.40;;
33786;SDS011;29742;51.540;9.358;2023-08-06T08:19:37;1.48;;;0.60;;
33786;SDS011;29742;51.540;9.358;2023-08-06T08:24:38;0.20;;;0.20;;
33786;SDS011;29742;51.540;9.358;2023-08-06T08:29:38;0.20;;;0.20;;
33786;SDS011;29742;51.540;9.358;2023-08-06T08:34:39;1.27;;;0.43;;
33786;SDS011;29742;51.540;9.358;2023-08-06T08:39:39;0.38;;;0.20;;
33786;SDS011;29742;51.540;9.358;2023-08-06T08:44:40;1.38;;;0.50;;
33786;SDS011;29742;51.540;9.358;2023-08-06T08:49:41;0.73;;;0.30;;
33786;SDS011;29742;51.540;9.358;2023-08-06T08:54:42;0.35;;;0.35;;
33786;SDS011;29742;51.540;9.358;2023-08-06T08:59:43;0.77;;;0.60;;
33786;SDS011;29742;51.540;9.358;2023-08-06T09:04:44;0.82;;;0.38;;
33786;SDS011;29742;51.540;9.358;2023-08-06T09:09:45;0.75;;;0.40;;
33786;SDS011;29742;51.540;9.358;2023-08-06T09:14:48;0.70;;;0.30;;
33786;SDS011;29742;51.540;9.358;2023-08-06T09:19:49;0.52;;;0.38;;
33786;SDS011;29742;51.540;9.358;2023-08-06T09:24:49;0.57;;;0.43;;
33786;SDS011;29742;51.540;9.358;2023-08-06T09:29:50;0.30;;;0.30;;
33786;SDS011;29742;51.540;9.358;2023-08-06T09:34:54;0.77;;;0.65;;
33786;SDS011;29742;51.540;9.358;2023-08-06T09:39:56;0.70;;;0.30;;
33786;SDS011;29742;51.540;9.358;2023-08-06T09:45:05;0.30;;;0.30;;
33786;SDS011;29742;51.540;9.358;2023-08-06T09:50:06;0.52;;;0.40;;
33786;SDS011;29742;51.540;9.358;2023-08-06T09:55:15;0.38;;;0.30;;
33786;SDS011;29742;51.540;9.358;2023-08-06T10:00:16;0.30;;;0.30;;
33786;SDS011;29742;51.540;9.358;2023-08-06T10:05:18;0.60;;;0.40;;
33786;SDS011;29742;51.540;9.358;2023-08-06T10:10:18;0.57;;;0.40;;
33786;SDS011;29742;51.540;9.358;2023-08-06T10:15:25;1.20;;;0.33;;
33786;SDS011;29742;51.540;9.358;2023-08-06T10:20:26;1.20;;;0.30;;
33786;SDS011;29742;51.540;9.358;2023-08-06T10:25:28;0.60;;;0.40;;
33786;SDS011;29742;51.540;9.358;2023-08-06T10:30:31;0.75;;;0.32;;
33786;SDS011;29742;51.540;9.358;2023-08-06T10:40:49;1.40;;;0.52;;
33786;SDS011;29742;51.540;9.358;2023-08-06T10:50:52;0.90;;;0.50;;
33786;SDS011;29742;51.540;9.358;2023-08-06T10:55:53;1.20;;;0.38;;
33786;SDS011;29742;51.540;9.358;2023-08-06T11:00:53;0.63;;;0.20;;
33786;SDS011;29742;51.540;9.358;2023-08-06T11:05:53;0.73;;;0.17;;
33786;SDS011;29742;51.540;9.358;2023-08-06T11:10:54;0.50;;;0.40;;
33786;SDS011;29742;51.540;9.358;2023-08-06T11:15:54;0.98;;;0.40;;
33786;SDS011;29742;51.540;9.358;2023-08-06T11:20:57;1.42;;;0.45;;
33786;SDS011;29742;51.540;9.358;2023-08-06T11:25:59;0.60;;;0.43;;
33786;SDS011;29742;51.540;9.358;2023-08-06T11:30:59;0.90;;;0.60;;
33786;SDS011;29742;51.540;9.358;2023-08-06T11:36:02;1.33;;;0.77;;
33786;SDS011;29742;51.540;9.358;2023-08-06T11:41:02;0.95;;;0.50;;
33786;SDS011;29742;51.540;9.358;2023-08-06T11:46:03;1.95;;;0.88;;
33786;SDS011;29742;51.540;9.358;2023-08-06T11:51:03;2.05;;;0.80;;
33786;SDS011;29742;51.540;9.358;2023-08-06T11:56:05;1.10;;;0.52;;
33786;SDS011;29742;51.540;9.358;2023-08-06T12:01:05;2.13;;;0.80;;
33786;SDS011;29742;51.540;9.358;2023-08-06T12:06:06;1.08;;;0.80;;
33786;SDS011;29742;51.540;9.358;2023-08-06T12:11:07;1.02;;;0.80;;
33786;SDS011;29742;51.540;9.358;2023-08-06T12:16:07;1.85;;;0.88;;
33786;SDS011;29742;51.540;9.358;2023-08-06T12:21:07;2.03;;;0.95;;
33786;SDS011;29742;51.540;9.358;2023-08-06T12:26:08;1.20;;;0.82;;
33786;SDS011;29742;51.540;9.358;2023-08-06T12:31:08;1.23;;;0.70;;
33786;SDS011;29742;51.540;9.358;2023-08-06T12:36:09;0.63;;;0.60;;
33786;SDS011;29742;51.540;9.358;2023-08-06T12:41:09;4.15;;;0.88;;
33786;SDS011;29742;51.540;9.358;2023-08-06T12:46:09;0.85;;;0.45;;
33786;SDS011;29742;51.540;9.358;2023-08-06T12:51:10;1.85;;;0.88;;
33786;SDS011;29742;51.540;9.358;2023-08-06T12:56:10;2.22;;;0.60;;
33786;SDS011;29742;51.540;9.358;2023-08-06T13:01:11;0.50;;;0.50;;
33786;SDS011;29742;51.540;9.358;2023-08-06T13:06:11;0.98;;;0.40;;
33786;SDS011;29742;51.540;9.358;2023-08-06T13:11:12;0.70;;;0.55;;
33786;SDS011;29742;51.540;9.358;2023-08-06T13:16:12;0.90;;;0.43;;
33786;SDS011;29742;51.540;9.358;2023-08-06T13:21:12;0.85;;;0.50;;
33786;SDS011;29742;51.540;9.358;2023-08-06T13:26:13;1.10;;;0.60;;
33786;SDS011;29742;51.540;9.358;2023-08-06T13:31:13;0.82;;;0.50;;
33786;SDS011;29742;51.540;9.358;2023-08-06T13:36:14;1.15;;;0.50;;
33786;SDS011;29742;51.540;9.358;2023-08-06T13:41:14;0.55;;;0.38;;
33786;SDS011;29742;51.540;9.358;2023-08-06T13:46:15;0.52;;;0.32;;
33786;SDS011;29742;51.540;9.358;2023-08-06T13:51:18;1.05;;;0.50;;
33786;SDS011;29742;51.540;9.358;2023-08-06T13:56:18;0.50;;;0.35;;
33786;SDS011;29742;51.540;9.358;2023-08-06T14:01:19;0.90;;;0.40;;
33786;SDS011;29742;51.540;9.358;2023-08-06T14:06:19;0.80;;;0.52;;
33786;SDS011;29742;51.540;9.358;2023-08-06T14:11:20;0.35;;;0.30;;
33786;SDS011;29742;51.540;9.358;2023-08-06T14:16:20;0.32;;;0.32;;
33786;SDS011;29742;51.540;9.358;2023-08-06T14:21:21;0.70;;;0.47;;
33786;SDS011;29742;51.540;9.358;2023-08-06T14:26:21;0.63;;;0.43;;
33786;SDS011;29742;51.540;9.358;2023-08-06T14:31:21;0.73;;;0.50;;
33786;SDS011;29742;51.540;9.358;2023-08-06T14:36:22;1.48;;;0.63;;
33786;SDS011;29742;51.540;9.358;2023-08-06T14:41:22;1.00;;;0.30;;
33786;SDS011;29742;51.540;9.358;2023-08-06T14:46:24;1.10;;;0.60;;
33786;SDS011;29742;51.540;9.358;2023-08-06T14:51:25;0.47;;;0.40;;
33786;SDS011;29742;51.540;9.358;2023-08-06T14:56:25;0.40;;;0.38;;
33786;SDS011;29742;51.540;9.358;2023-08-06T15:01:26;1.33;;;1.02;;
33786;SDS011;29742;51.540;9.358;2023-08-06T15:06:26;0.47;;;0.40;;
33786;SDS011;29742;51.540;9.358;2023-08-06T15:11:26;0.88;;;0.50;;
33786;SDS011;29742;51.540;9.358;2023-08-06T15:16:27;0.45;;;0.45;;
33786;SDS011;29742;51.540;9.358;2023-08-06T15:21:27;0.52;;;0.30;;
33786;SDS011;29742;51.540;9.358;2023-08-06T15:26:28;0.65;;;0.50;;
33786;SDS011;29742;51.540;9.358;2023-08-06T15:31:35;0.63;;;0.55;;
33786;SDS011;29742;51.540;9.358;2023-08-06T15:36:38;0.47;;;0.47;;
33786;SDS011;29742;51.540;9.358;2023-08-06T15:41:38;0.22;;;0.20;;
33786;SDS011;29742;51.540;9.358;2023-08-06T15:46:38;0.30;;;0.30;;
33786;SDS011;29742;51.540;9.358;2023-08-06T15:51:40;5.72;;;0.68;;
33786;SDS011;29742;51.540;9.358;2023-08-06T15:56:41;0.55;;;0.40;;
33786;SDS011;29742;51.540;9.358;2023-08-06T16:01:41;0.25;;;0.10;;
33786;SDS011;29742;51.540;9.358;2023-08-06T16:06:42;0.55;;;0.40;;
33786;SDS011;29742;51.540;9.358;2023-08-06T16:11:43;0.20;;;0.20;;
33786;SDS011;29742;51.540;9.358;2023-08-06T16:16:45;0.30;;;0.30;;
33786;SDS011;29742;51.540;9.358;2023-08-06T16:21:46;0.40;;;0.30;;
33786;SDS011;29742;51.540;9.358;2023-08-06T16:26:46;0.55;;;0.50;;
33786;SDS011;29742;51.540;9.358;2023-08-06T16:31:46;1.20;;;0.57;;
33786;SDS011;29742;51.540;9.358;2023-08-06T16:36:47;0.90;;;0.28;;
33786;SDS011;29742;51.540;9.358;2023-08-06T16:41:47;0.30;;;0.20;;
33786;SDS011;29742;51.540;9.358;2023-08-06T16:46:48;0.17;;;0.17;;
33786;SDS011;29742;51.540;9.358;2023-08-06T16:51:48;0.57;;;0.30;;
33786;SDS011;29742;51.540;9.358;2023-08-06T16:56:49;0.73;;;0.45;;
33786;SDS011;29742;51.540;9.358;2023-08-06T17:01:49;0.38;;;0.30;;
33786;SDS011;29742;51.540;9.358;2023-08-06T17:06:51;0.45;;;0.40;;
33786;SDS011;29742;51.540;9.358;2023-08-06T17:11:51;0.60;;;0.30;;
33786;SDS011;29742;51.540;9.358;2023-08-06T17:16:51;0.40;;;0.20;;
33786;SDS011;29742;51.540;9.358;2023-08-06T17:21:52;1.25;;;0.50;;
33786;SDS011;29742;51.540;9.358;2023-08-06T17:26:52;0.55;;;0.22;;
33786;SDS011;29742;51.540;9.358;2023-08-06T17:31:58;0.20;;;0.13;;
33786;SDS011;29742;51.540;9.358;2023-08-06T17:36:58;0.52;;;0.20;;
33786;SDS011;29742;51.540;9.358;2023-08-06T17:41:59;0.60;;;0.28;;
33786;SDS011;29742;51.540;9.358;2023-08-06T17:47:03;0.47;;;0.40;;
33786;SDS011;29742;51.540;9.358;2023-08-06T17:52:03;0.40;;;0.20;;
33786;SDS011;29742;51.540;9.358;2023-08-06T17:57:04;0.10;;;0.10;;
33786;SDS011;29742;51.540;9.358;2023-08-06T18:02:05;1.08;;;0.20;;
33786;SDS011;29742;51.540;9.358;2023-08-06T18:07:05;0.13;;;0.10;;
33786;SDS011;29742;51.540;9.358;2023-08-06T18:12:07;0.20;;;0.20;;
33786;SDS011;29742;51.540;9.358;2023-08-06T18:17:10;5.15;;;0.30;;
33786;SDS011;29742;51.540;9.358;2023-08-06T18:22:11;0.43;;;0.30;;
33786;SDS011;29742;51.540;9.358;2023-08-06T18:27:11;0.25;;;0.25;;
33786;SDS011;29742;51.540;9.358;2023-08-06T18:32:17;0.17;;;0.17;;
33786;SDS011;29742;51.540;9.358;2023-08-06T18:37:17;0.28;;;0.22;;
33786;SDS011;29742;51.540;9.358;2023-08-06T18:42:17;0.13;;;0.10;;
33786;SDS011;29742;51.540;9.358;2023-08-06T18:47:18;0.17;;;0.17;;
33786;SDS011;29742;51.540;9.358;2023-08-06T18:52:18;0.15;;;0.10;;
33786;SDS011;29742;51.540;9.358;2023-08-06T18:57:19;0.13;;;0.03;;
33786;SDS011;29742;51.540;9.358;2023-08-06T19:02:21;0.98;;;0.20;;
33786;SDS011;29742;51.540;9.358;2023-08-06T19:07:21;0.10;;;0.10;;
33786;SDS011;29742;51.540;9.358;2023-08-06T19:12:22;0.13;;;0.00;;
33786;SDS011;29742;51.540;9.358;2023-08-06T19:17:22;0.05;;;0.00;;
33786;SDS011;29742;51.540;9.358;2023-08-06T19:22:23;0.00;;;0.00;;
33786;SDS011;29742;51.540;9.358;2023-08-06T19:27:23;0.05;;;0.00;;
33786;SDS011;29742;51.540;9.358;2023-08-06T19:32:23;0.20;;;0.03;;
33786;SDS011;29742;51.540;9.358;2023-08-06T19:37:24;0.10;;;0.10;;
33786;SDS011;29742;51.540;9.358;2023-08-06T19:42:24;0.10;;;0.10;;
33786;SDS011;29742;51.540;9.358;2023-08-06T19:47:24;0.05;;;0.05;;
33786;SDS011;29742;51.540;9.358;2023-08-06T19:52:25;0.00;;;0.00;;
33786;SDS011;29742;51.540;9.358;2023-08-06T19:57:25;0.40;;;0.13;;
33786;SDS011;29742;51.540;9.358;2023-08-06T20:02:26;0.20;;;0.10;;
33786;SDS011;29742;51.540;9.358;2023-08-06T20:07:26;0.10;;;0.10;;
33786;SDS011;29742;51.540;9.358;2023-08-06T20:12:28;2.03;;;0.40;;
33786;SDS011;29742;51.540;9.358;2023-08-06T20:17:28;0.10;;;0.10;;
33786;SDS011;29742;51.540;9.358;2023-08-06T20:22:29;0.17;;;0.10;;
33786;SDS011;29742;51.540;9.358;2023-08-06T20:27:29;0.13;;;0.10;;
33786;SDS011;29742;51.540;9.358;2023-08-06T20:32:29;0.03;;;0.03;;
33786;SDS011;29742;51.540;9.358;2023-08-06T20:37:30;0.20;;;0.20;;
33786;SDS011;29742;51.540;9.358;2023-08-06T20:42:30;0.30;;;0.20;;
33786;SDS011;29742;51.540;9.358;2023-08-06T20:47:30;0.10;;;0.10;;
33786;SDS011;29742;51.540;9.358;2023-08-06T20:52:31;0.13;;;0.10;;
33786;SDS011;29742;51.540;9.358;2023-08-06T20:57:31;0.10;;;0.10;;
33786;SDS011;29742;51.540;9.358;2023-08-06T21:02:32;1.08;;;0.10;;
33786;SDS011;29742;51.540;9.358;2023-08-06T21:07:32;0.10;;;0.10;;
33786;SDS011;29742;51.540;9.358;2023-08-06T21:12:33;0.03;;;0.03;;
33786;SDS011;29742;51.540;9.358;2023-08-06T21:17:33;0.15;;;0.10;;
33786;SDS011;29742;51.540;9.358;2023-08-06T21:22:33;0.30;;;0.05;;
33786;SDS011;29742;51.540;9.358;2023-08-06T21:27:34;0.10;;;0.10;;
33786;SDS011;29742;51.540;9.358;2023-08-06T21:32:34;0.00;;;0.00;;
33786;SDS011;29742;51.540;9.358;2023-08-06T21:37:35;0.20;;;0.08;;
33786;SDS011;29742;51.540;9.358;2023-08-06T21:42:35;0.08;;;0.08;;
33786;SDS011;29742;51.540;9.358;2023-08-06T21:47:36;0.20;;;0.00;;
33786;SDS011;29742;51.540;9.358;2023-08-06T21:52:36;0.22;;;0.10;;
33786;SDS011;29742;51.540;9.358;2023-08-06T21:57:37;0.10;;;0.10;;
33786;SDS011;29742;51.540;9.358;2023-08-06T22:02:37;0.10;;;0.10;;
33786;SDS011;29742;51.540;9.358;2023-08-06T22:07:37;0.10;;;0.10;;
33786;SDS011;29742;51.540;9.358;2023-08-06T22:12:38;0.30;;;0.10;;
33786;SDS011;29742;51.540;9.358;2023-08-06T22:17:38;0.10;;;0.10;;
33786;SDS011;29742;51.540;9.358;2023-08-06T22:22:39;0.25;;;0.20;;
33786;SDS011;29742;51.540;9.358;2023-08-06T22:27:39;0.00;;;0.00;;
33786;SDS011;29742;51.540;9.358;2023-08-06T22:32:39;0.00;;;0.00;;
33786;SDS011;29742;51.540;9.358;2023-08-06T22:37:40;0.15;;;0.13;;
33786;SDS011;29742;51.540;9.358;2023-08-06T22:42:41;0.10;;;0.10;;
33786;SDS011;29742;51.540;9.358;2023-08-06T22:47:43;0.00;;;0.00;;
33786;SDS011;29742;51.540;9.358;2023-08-06T22:52:43;0.03;;;0.00;;
33786;SDS011;29742;51.540;9.358;2023-08-06T22:57:44;0.13;;;0.13;;
33786;SDS011;29742;51.540;9.358;2023-08-06T23:02:44;0.10;;;0.10;;
33786;SDS011;29742;51.540;9.358;2023-08-06T23:07:44;0.20;;;0.15;;
33786;SDS011;29742;51.540;9.358;2023-08-06T23:12:45;0.00;;;0.00;;
33786;SDS011;29742;51.540;9.358;2023-08-06T23:17:45;0.10;;;0.10;;
33786;SDS011;29742;51.540;9.358;2023-08-06T23:22:46;0.22;;;0.22;;
33786;SDS011;29742;51.540;9.358;2023-08-06T23:27:46;0.28;;;0.13;;
33786;SDS011;29742;51.540;9.358;2023-08-06T23:32:46;0.00;;;0.00;;
33786;SDS011;29742;51.540;9.358;2023-08-06T23:37:47;0.77;;;0.20;;
33786;SDS011;29742;51.540;9.358;2023-08-06T23:42:47;0.20;;;0.10;;
33786;SDS011;29742;51.540;9.358;2023-08-06T23:47:48;0.17;;;0.10;;
33786;SDS011;29742;51.540;9.358;2023-08-06T23:52:48;0.10;;;0.03;;
33786;SDS011;29742;51.540;9.358;2023-08-06T23:57:49;0.20;;;0.10;;
